Granger, Minnesota
Current Conditions -  °F | °C
As of 4:35 AM on Friday 24 Oct 2014 (Local Time) from KFKA Reporting Station
Moderate Fog Moderate Fog  
Wind Chill: 44°   Ceiling: 200
Heat Index: 47°   Visibility: 0.25mi
Dew Point: 47°   Wind: 7mph
Humidity: 97%   Direction: 180°S
Pressure: 30"   Gusts: NA
Location:  43.57°N, 92.0698°W
Report Text: KFKA 240935Z AUTO 18006KT 1/4SM FG OVC002 09/08 A3000 RMK AO2 T00860082
Loading
Personal Weather Stations






























Interactive Weather Map
Tropical Storm Tracking
New forecast layout! Learn more

10-Day Weather Forecast

Advertisements
Track Severe Weather on mobile